Weather History for Plainview, TX

Change the Weather History Date:

Monday, July 2, 2012

  Actual Average Record
Temperature  
Mean Temperature 76 °F -  
Max Temperature 89 °F 92 °F 105 °F (1980)
Min Temperature 64 °F 67 °F 56 °F (1923)
Cooling Degree Days 12    
Growing Degree Days 26 (Base 50)    
Moisture  
Dew Point 59 °F    
Average Humidity 55    
Maximum Humidity 83    
Minimum Humidity 33    
Precipitation  
Precipitation 0.00 in - - ()
Sea Level Pressure  
Sea Level Pressure 30.03 in    
Wind  
Wind Speed 11 mph (South)    
Max Wind Speed 21 mph    
Max Gust Speed 30 mph    
Visibility 10 miles    
Events      
Averages and records for this station are not official NWS values.
T = Trace of Precipitation, MM = Missing Value Source: NWS Daily Summary

Daily Weather History Graph

Daily Weather History Graph

Search for Another Location

Airport:

Trip Planner

Search our weather history database for the weather conditions in past years. The results will help you decide how hot, cold, wet, or windy it might be!

Date:

Astronomy

Jul. 02, 2012 Rise Set
Actual Time 6:39 AM CDT 9:02 PM CDT
Civil Twilight 6:10 AM CDT 9:31 PM CDT
Nautical Twilight 5:34 AM CDT 10:07 PM CDT
Astronomical Twilight 4:55 AM CDT 10:46 PM CDT
Moon 8:08 PM CDT (7/2) 5:27 AM CDT (7/2)
Length of Visible Light 15h 21m
Length of Day
14h 22m
Waxing Gibbous, 98% of the Moon is Illuminated
Jul 2
Waxing Gibbous
Jul 3
Full
Jul 10
Last Quarter
Jul 18
New
Jul 26
First Quarter

Hourly Weather History & Observations

Time (CDT) Temp. Heat Index Dew Point Humidity Pressure Visibility Wind Dir Wind Speed Gust Speed Precip Events Conditions
12:15 AM 73.4 °F - 60.8 °F 65% 30.04 in 10.0 mi SSE 8.1 mph - N/A   Clear
12:35 AM 73.4 °F - 60.8 °F 65% 30.04 in 10.0 mi SSE 9.2 mph - N/A   Clear
12:55 AM 73.4 °F - 59.0 °F 61% 30.04 in 10.0 mi SSE 9.2 mph - N/A   Clear
1:15 AM 73.4 °F - 60.8 °F 65% 30.04 in 10.0 mi South 10.4 mph - N/A   Clear
1:35 AM 73.4 °F - 60.8 °F 65% 30.04 in 10.0 mi South 12.7 mph - N/A   Clear
1:55 AM 73.4 °F - 60.8 °F 65% 30.02 in 10.0 mi South 10.4 mph - N/A   Clear
2:15 AM 73.4 °F - 60.8 °F 65% 30.02 in 10.0 mi South 10.4 mph - N/A   Clear
2:35 AM 71.6 °F - 59.0 °F 64% 30.02 in 10.0 mi South 10.4 mph - N/A   Clear
2:55 AM 71.6 °F - 59.0 °F 64% 30.02 in 10.0 mi South 11.5 mph - N/A   Clear
3:15 AM 71.6 °F - 59.0 °F 64% 30.01 in 10.0 mi South 9.2 mph - N/A   Clear
3:35 AM 69.8 °F - 59.0 °F 68% 30.01 in 10.0 mi South 9.2 mph - N/A   Clear
3:55 AM 69.8 °F - 59.0 °F 68% 30.00 in 10.0 mi South 10.4 mph - N/A   Clear
4:15 AM 69.8 °F - 59.0 °F 68% 30.00 in 10.0 mi South 9.2 mph - N/A   Clear
4:35 AM 69.8 °F - 60.8 °F 73% 30.01 in 10.0 mi South 8.1 mph - N/A   Clear
4:55 AM 69.8 °F - 60.8 °F 73% 30.01 in 10.0 mi South 5.8 mph - N/A   Clear
5:15 AM 69.8 °F - 60.8 °F 73% 30.01 in 10.0 mi South 8.1 mph - N/A   Clear
5:35 AM 69.8 °F - 60.8 °F 73% 30.01 in 10.0 mi South 6.9 mph - N/A   Clear
5:55 AM 69.8 °F - 60.8 °F 73% 30.02 in 10.0 mi South 8.1 mph - N/A   Clear
6:15 AM 69.8 °F - 60.8 °F 73% 30.02 in 10.0 mi South 6.9 mph - N/A   Clear
6:35 AM 66.2 °F - 59.0 °F 78% 30.04 in 10.0 mi South 3.5 mph - N/A   Clear
6:55 AM 64.4 °F - 59.0 °F 83% 30.04 in 10.0 mi South 6.9 mph - N/A   Clear
7:15 AM 66.2 °F - 60.8 °F 83% 30.05 in 10.0 mi South 5.8 mph - N/A   Clear
7:35 AM 69.8 °F - 62.6 °F 78% 30.05 in 10.0 mi South 8.1 mph - N/A   Clear
7:55 AM 69.8 °F - 60.8 °F 73% 30.06 in 10.0 mi South 8.1 mph - N/A   Clear
8:15 AM 69.8 °F - 60.8 °F 73% 30.07 in 10.0 mi South 13.8 mph 18.4 mph N/A   Clear
8:35 AM 71.6 °F - 62.6 °F 73% 30.08 in 10.0 mi SSW 12.7 mph 16.1 mph N/A   Clear
8:55 AM 73.4 °F - 62.6 °F 69% 30.09 in 10.0 mi SSW 15.0 mph 20.7 mph N/A   Clear
9:15 AM 73.4 °F - 60.8 °F 65% 30.09 in 10.0 mi SSW 15.0 mph 21.9 mph N/A   Clear
9:35 AM 73.4 °F - 60.8 °F 65% 30.09 in 10.0 mi SW 13.8 mph 19.6 mph N/A   Clear
9:55 AM 77.0 °F - 62.6 °F 61% 30.09 in 10.0 mi SSW 15.0 mph - N/A   Clear
10:15 AM 77.0 °F - 60.8 °F 57% 30.09 in 10.0 mi SSW 13.8 mph 20.7 mph N/A   Clear
10:35 AM 77.0 °F - 60.8 °F 57% 30.08 in 10.0 mi SSW 11.5 mph - N/A   Clear
10:55 AM 78.8 °F - 62.6 °F 57% 30.07 in 10.0 mi South 9.2 mph - N/A   Scattered Clouds
11:15 AM 78.8 °F - 62.6 °F 57% 30.08 in 10.0 mi SSW 10.4 mph - N/A   Scattered Clouds
11:35 AM 78.8 °F - 60.8 °F 54% 30.08 in 10.0 mi South 12.7 mph - N/A   Scattered Clouds
11:55 AM 78.8 °F - 60.8 °F 54% 30.07 in 10.0 mi SSW 10.4 mph 19.6 mph N/A   Scattered Clouds
12:15 PM 80.6 °F 81.1 °F 59.0 °F 48% 30.07 in 10.0 mi South 12.7 mph 21.9 mph N/A   Scattered Clouds
12:35 PM 82.4 °F 82.9 °F 60.8 °F 48% 30.07 in 10.0 mi South 16.1 mph 20.7 mph N/A   Mostly Cloudy
12:55 PM 82.4 °F 82.5 °F 59.0 °F 45% 30.07 in 10.0 mi South 15.0 mph 19.6 mph N/A   Scattered Clouds
1:15 PM 82.4 °F 82.5 °F 59.0 °F 45% 30.06 in 10.0 mi South 16.1 mph 19.6 mph N/A   Scattered Clouds
1:35 PM 82.4 °F 82.5 °F 59.0 °F 45% 30.06 in 10.0 mi South 15.0 mph 23.0 mph N/A   Scattered Clouds
1:55 PM 82.4 °F 82.5 °F 59.0 °F 45% 30.06 in 10.0 mi SSW 18.4 mph 26.5 mph N/A   Scattered Clouds
2:15 PM 86.0 °F 85.4 °F 59.0 °F 40% 30.05 in 10.0 mi SSW 12.7 mph 23.0 mph N/A   Scattered Clouds
2:35 PM 82.4 °F 82.0 °F 57.2 °F 42% 30.04 in 10.0 mi South 18.4 mph 26.5 mph N/A   Scattered Clouds
2:55 PM 87.8 °F 87.1 °F 59.0 °F 38% 30.04 in 10.0 mi South 17.3 mph 29.9 mph N/A   Scattered Clouds
3:15 PM 87.8 °F 87.1 °F 59.0 °F 38% 30.03 in 10.0 mi South 15.0 mph 25.3 mph N/A   Scattered Clouds
3:35 PM 89.6 °F 88.9 °F 59.0 °F 36% 30.03 in 10.0 mi South 17.3 mph 27.6 mph N/A   Scattered Clouds
3:55 PM 89.6 °F 88.9 °F 59.0 °F 36% 30.02 in 10.0 mi South 18.4 mph 25.3 mph N/A   Mostly Cloudy
4:15 PM 87.8 °F 86.5 °F 57.2 °F 35% 30.01 in 10.0 mi South 19.6 mph 27.6 mph N/A   Scattered Clouds
4:35 PM 87.8 °F 87.1 °F 59.0 °F 38% 30.01 in 10.0 mi South 18.4 mph 29.9 mph N/A   Mostly Cloudy
4:55 PM 87.8 °F 86.5 °F 57.2 °F 35% 30.00 in 10.0 mi SSE 18.4 mph - N/A   Mostly Cloudy
5:15 PM 89.6 °F 88.9 °F 59.0 °F 36% 30.00 in 10.0 mi SSE 16.1 mph 27.6 mph N/A   Mostly Cloudy
5:35 PM 89.6 °F 88.1 °F 57.2 °F 33% 29.99 in 10.0 mi South 20.7 mph 26.5 mph N/A   Scattered Clouds
5:55 PM 89.6 °F 88.9 °F 59.0 °F 36% 29.98 in 10.0 mi SSE 17.3 mph 25.3 mph N/A   Scattered Clouds
6:15 PM 89.6 °F 88.9 °F 59.0 °F 36% 29.98 in 10.0 mi South 15.0 mph 25.3 mph N/A   Scattered Clouds
6:35 PM 89.6 °F 88.9 °F 59.0 °F 36% 29.97 in 10.0 mi South 15.0 mph - N/A   Mostly Cloudy
6:55 PM 87.8 °F 86.5 °F 57.2 °F 35% 29.98 in 10.0 mi South 18.4 mph 26.5 mph N/A   Scattered Clouds
7:15 PM 87.8 °F 86.5 °F 57.2 °F 35% 29.98 in 10.0 mi South 15.0 mph 24.2 mph N/A   Scattered Clouds
7:35 PM 86.0 °F 84.5 °F 55.4 °F 35% 29.97 in 10.0 mi South 17.3 mph 24.2 mph N/A   Scattered Clouds
7:55 PM 82.4 °F 81.7 °F 55.4 °F 39% 29.97 in 10.0 mi South 15.0 mph 20.7 mph N/A   Scattered Clouds
8:15 PM 82.4 °F 81.7 °F 55.4 °F 39% 29.98 in 10.0 mi South 13.8 mph - N/A   Clear
8:55 PM 80.6 °F 80.5 °F 55.4 °F 42% 29.99 in 10.0 mi South 13.8 mph 18.4 mph N/A   Clear
9:15 PM 80.6 °F 80.5 °F 55.4 °F 42% 29.99 in 10.0 mi South 11.5 mph - N/A   Clear
9:35 PM 78.8 °F - 55.4 °F 44% 29.99 in 10.0 mi SSE 11.5 mph - N/A   Clear
9:55 PM 78.8 °F - 57.2 °F 47% 30.00 in 10.0 mi South 10.4 mph - N/A   Clear
10:15 PM 77.0 °F - 57.2 °F 50% 30.01 in 10.0 mi SSE 9.2 mph - N/A   Clear
10:35 PM 77.0 °F - 59.0 °F 54% 30.02 in 10.0 mi SSE 10.4 mph - N/A   Clear
10:55 PM 77.0 °F - 59.0 °F 54% 30.03 in 10.0 mi SSE 11.5 mph - N/A   Scattered Clouds
11:15 PM 77.0 °F - 59.0 °F 54% 30.03 in 10.0 mi SSE 11.5 mph - N/A   Mostly Cloudy
11:35 PM 77.0 °F - 59.0 °F 54% 30.04 in 10.0 mi SSE 10.4 mph - N/A   Scattered Clouds
11:55 PM 75.2 °F - 59.0 °F 57% 30.04 in 10.0 mi South 10.4 mph - N/A   Clear